sensor_id;sensor_type;location;lat;lon;timestamp;temperature;humidity
12481;DHT22;6305;48.398;11.762;2022-12-28T00:01:06;-2.80;99.90
12481;DHT22;6305;48.398;11.762;2022-12-28T00:03:34;-2.80;99.90
12481;DHT22;6305;48.398;11.762;2022-12-28T00:06:03;-2.90;99.90
12481;DHT22;6305;48.398;11.762;2022-12-28T00:08:30;-3.00;99.90
12481;DHT22;6305;48.398;11.762;2022-12-28T00:10:59;-3.00;99.90
12481;DHT22;6305;48.398;11.762;2022-12-28T00:13:28;-2.90;99.90
12481;DHT22;6305;48.398;11.762;2022-12-28T00:15:55;-2.80;99.90
12481;DHT22;6305;48.398;11.762;2022-12-28T00:18:22;-2.70;99.90
12481;DHT22;6305;48.398;11.762;2022-12-28T00:20:56;-2.70;99.90
12481;DHT22;6305;48.398;11.762;2022-12-28T00:23:25;-2.70;99.90
12481;DHT22;6305;48.398;11.762;2022-12-28T00:25:53;-2.80;99.90
12481;DHT22;6305;48.398;11.762;2022-12-28T00:28:20;-2.90;99.90
12481;DHT22;6305;48.398;11.762;2022-12-28T00:30:50;-2.90;99.90
12481;DHT22;6305;48.398;11.762;2022-12-28T00:33:17;-3.00;99.90
12481;DHT22;6305;48.398;11.762;2022-12-28T00:35:52;-3.00;99.90
12481;DHT22;6305;48.398;11.762;2022-12-28T00:38:19;-3.10;99.90
12481;DHT22;6305;48.398;11.762;2022-12-28T00:40:47;-3.10;99.90
12481;DHT22;6305;48.398;11.762;2022-12-28T00:43:14;-3.00;99.90
12481;DHT22;6305;48.398;11.762;2022-12-28T00:45:43;-2.90;99.90
12481;DHT22;6305;48.398;11.762;2022-12-28T00:48:10;-2.90;99.90
12481;DHT22;6305;48.398;11.762;2022-12-28T00:50:38;-2.90;99.90
12481;DHT22;6305;48.398;11.762;2022-12-28T00:53:05;-2.90;99.90
12481;DHT22;6305;48.398;11.762;2022-12-28T00:55:33;-2.90;99.90
12481;DHT22;6305;48.398;11.762;2022-12-28T00:58:02;-2.90;99.90
12481;DHT22;6305;48.398;11.762;2022-12-28T01:00:30;-3.00;99.90
12481;DHT22;6305;48.398;11.762;2022-12-28T01:02:57;-3.00;99.90
12481;DHT22;6305;48.398;11.762;2022-12-28T01:05:25;-3.00;99.90
12481;DHT22;6305;48.398;11.762;2022-12-28T01:07:52;-3.10;99.90
12481;DHT22;6305;48.398;11.762;2022-12-28T01:10:19;-3.00;99.90
12481;DHT22;6305;48.398;11.762;2022-12-28T01:12:46;-3.00;99.90
12481;DHT22;6305;48.398;11.762;2022-12-28T01:15:15;-2.90;99.90
12481;DHT22;6305;48.398;11.762;2022-12-28T01:17:42;-2.90;99.90
12481;DHT22;6305;48.398;11.762;2022-12-28T01:20:09;-2.90;99.90
12481;DHT22;6305;48.398;11.762;2022-12-28T01:22:36;-2.90;99.90
12481;DHT22;6305;48.398;11.762;2022-12-28T01:25:06;-2.80;99.90
12481;DHT22;6305;48.398;11.762;2022-12-28T01:27:36;-2.80;99.90
12481;DHT22;6305;48.398;11.762;2022-12-28T01:30:03;-2.90;99.90
12481;DHT22;6305;48.398;11.762;2022-12-28T01:32:32;-2.90;99.90
12481;DHT22;6305;48.398;11.762;2022-12-28T01:34:59;-2.80;99.90
12481;DHT22;6305;48.398;11.762;2022-12-28T01:37:26;-2.80;99.90
12481;DHT22;6305;48.398;11.762;2022-12-28T01:39:53;-2.70;99.90
12481;DHT22;6305;48.398;11.762;2022-12-28T01:42:20;-2.60;99.90
12481;DHT22;6305;48.398;11.762;2022-12-28T01:44:49;-2.60;99.90
12481;DHT22;6305;48.398;11.762;2022-12-28T01:47:22;-2.60;99.90
12481;DHT22;6305;48.398;11.762;2022-12-28T01:49:56;-2.70;99.90
12481;DHT22;6305;48.398;11.762;2022-12-28T01:52:27;-2.80;99.90
12481;DHT22;6305;48.398;11.762;2022-12-28T01:54:59;-2.80;99.90
12481;DHT22;6305;48.398;11.762;2022-12-28T01:57:30;-2.80;99.90
12481;DHT22;6305;48.398;11.762;2022-12-28T02:00:02;-2.70;99.90
12481;DHT22;6305;48.398;11.762;2022-12-28T02:02:40;-2.60;99.90
12481;DHT22;6305;48.398;11.762;2022-12-28T02:05:10;-2.50;99.90
12481;DHT22;6305;48.398;11.762;2022-12-28T02:07:44;-2.40;99.90
12481;DHT22;6305;48.398;11.762;2022-12-28T02:10:14;-2.40;99.90
12481;DHT22;6305;48.398;11.762;2022-12-28T02:12:42;-2.30;99.90
12481;DHT22;6305;48.398;11.762;2022-12-28T02:15:10;-2.20;99.90
12481;DHT22;6305;48.398;11.762;2022-12-28T02:17:37;-2.10;99.90
12481;DHT22;6305;48.398;11.762;2022-12-28T02:20:05;-2.20;99.90
12481;DHT22;6305;48.398;11.762;2022-12-28T02:29:11;-2.60;99.90
12481;DHT22;6305;48.398;11.762;2022-12-28T02:31:42;-2.60;99.90
12481;DHT22;6305;48.398;11.762;2022-12-28T02:34:15;-2.60;99.90
12481;DHT22;6305;48.398;11.762;2022-12-28T02:36:49;-2.70;99.90
12481;DHT22;6305;48.398;11.762;2022-12-28T02:39:21;-2.70;99.90
12481;DHT22;6305;48.398;11.762;2022-12-28T02:41:51;-2.70;99.90
12481;DHT22;6305;48.398;11.762;2022-12-28T02:44:20;-2.70;99.90
12481;DHT22;6305;48.398;11.762;2022-12-28T02:47:02;-2.70;99.90
12481;DHT22;6305;48.398;11.762;2022-12-28T02:49:47;-2.60;99.90
12481;DHT22;6305;48.398;11.762;2022-12-28T02:52:59;-2.40;99.90
12481;DHT22;6305;48.398;11.762;2022-12-28T02:55:42;-2.20;99.90
12481;DHT22;6305;48.398;11.762;2022-12-28T03:02:02;-2.30;99.90
12481;DHT22;6305;48.398;11.762;2022-12-28T03:04:40;-2.30;99.90
12481;DHT22;6305;48.398;11.762;2022-12-28T03:07:17;-2.40;99.90
12481;DHT22;6305;48.398;11.762;2022-12-28T03:10:11;-2.40;99.90
12481;DHT22;6305;48.398;11.762;2022-12-28T03:12:45;-2.50;99.90
12481;DHT22;6305;48.398;11.762;2022-12-28T03:15:16;-2.50;99.90
12481;DHT22;6305;48.398;11.762;2022-12-28T03:18:00;-2.50;99.90
12481;DHT22;6305;48.398;11.762;2022-12-28T03:20:46;-2.60;99.90
12481;DHT22;6305;48.398;11.762;2022-12-28T03:23:34;-2.60;99.90
12481;DHT22;6305;48.398;11.762;2022-12-28T03:26:23;-2.60;99.90
12481;DHT22;6305;48.398;11.762;2022-12-28T03:29:08;-2.60;99.90
12481;DHT22;6305;48.398;11.762;2022-12-28T03:31:57;-2.60;99.90
12481;DHT22;6305;48.398;11.762;2022-12-28T03:34:26;-2.50;99.90
12481;DHT22;6305;48.398;11.762;2022-12-28T03:36:58;-2.50;99.90
12481;DHT22;6305;48.398;11.762;2022-12-28T03:39:39;-2.60;99.90
12481;DHT22;6305;48.398;11.762;2022-12-28T03:42:13;-2.50;99.90
12481;DHT22;6305;48.398;11.762;2022-12-28T03:45:04;-2.40;99.90
12481;DHT22;6305;48.398;11.762;2022-12-28T03:47:34;-2.30;99.90
12481;DHT22;6305;48.398;11.762;2022-12-28T03:50:05;-2.40;99.90
12481;DHT22;6305;48.398;11.762;2022-12-28T03:52:33;-2.30;99.90
12481;DHT22;6305;48.398;11.762;2022-12-28T03:55:03;-2.30;99.90
12481;DHT22;6305;48.398;11.762;2022-12-28T03:57:30;-2.40;99.90
12481;DHT22;6305;48.398;11.762;2022-12-28T03:59:58;-2.50;99.90
12481;DHT22;6305;48.398;11.762;2022-12-28T04:02:25;-2.50;99.90
12481;DHT22;6305;48.398;11.762;2022-12-28T04:04:52;-2.50;99.90
12481;DHT22;6305;48.398;11.762;2022-12-28T04:07:20;-2.50;99.90
12481;DHT22;6305;48.398;11.762;2022-12-28T04:09:48;-2.40;99.90
12481;DHT22;6305;48.398;11.762;2022-12-28T04:12:16;-2.40;99.90
12481;DHT22;6305;48.398;11.762;2022-12-28T04:15:07;-2.20;99.90
12481;DHT22;6305;48.398;11.762;2022-12-28T04:17:35;-2.20;99.90
12481;DHT22;6305;48.398;11.762;2022-12-28T04:20:03;-2.10;99.90
12481;DHT22;6305;48.398;11.762;2022-12-28T04:22:32;-2.10;99.90
12481;DHT22;6305;48.398;11.762;2022-12-28T04:24:59;-2.10;99.90
12481;DHT22;6305;48.398;11.762;2022-12-28T04:27:26;-2.10;99.90
12481;DHT22;6305;48.398;11.762;2022-12-28T04:29:57;-2.10;99.90
12481;DHT22;6305;48.398;11.762;2022-12-28T04:32:24;-2.10;99.90
12481;DHT22;6305;48.398;11.762;2022-12-28T04:34:52;-2.10;99.90
12481;DHT22;6305;48.398;11.762;2022-12-28T04:37:19;-2.00;99.90
12481;DHT22;6305;48.398;11.762;2022-12-28T04:39:47;-1.90;99.90
12481;DHT22;6305;48.398;11.762;2022-12-28T04:42:15;-1.80;99.90
12481;DHT22;6305;48.398;11.762;2022-12-28T04:44:42;-1.70;99.90
12481;DHT22;6305;48.398;11.762;2022-12-28T04:47:09;-1.60;99.90
12481;DHT22;6305;48.398;11.762;2022-12-28T04:49:36;-1.50;99.90
12481;DHT22;6305;48.398;11.762;2022-12-28T04:52:03;-1.40;99.90
12481;DHT22;6305;48.398;11.762;2022-12-28T04:54:30;-1.30;99.90
12481;DHT22;6305;48.398;11.762;2022-12-28T04:56:58;-1.30;99.90
12481;DHT22;6305;48.398;11.762;2022-12-28T04:59:25;-1.40;99.90
12481;DHT22;6305;48.398;11.762;2022-12-28T05:01:52;-1.50;99.90
12481;DHT22;6305;48.398;11.762;2022-12-28T05:04:24;-1.60;99.90
12481;DHT22;6305;48.398;11.762;2022-12-28T05:07:15;-1.70;99.90
12481;DHT22;6305;48.398;11.762;2022-12-28T05:09:52;-1.90;99.90
12481;DHT22;6305;48.398;11.762;2022-12-28T05:12:40;-2.00;99.90
12481;DHT22;6305;48.398;11.762;2022-12-28T05:15:21;-2.10;99.90
12481;DHT22;6305;48.398;11.762;2022-12-28T05:18:23;-2.10;99.90
12481;DHT22;6305;48.398;11.762;2022-12-28T05:21:06;-2.00;99.90
12481;DHT22;6305;48.398;11.762;2022-12-28T05:23:58;-1.80;99.90
12481;DHT22;6305;48.398;11.762;2022-12-28T05:26:46;-1.60;99.90
12481;DHT22;6305;48.398;11.762;2022-12-28T05:29:34;-1.50;99.90
12481;DHT22;6305;48.398;11.762;2022-12-28T05:32:45;-1.40;99.90
12481;DHT22;6305;48.398;11.762;2022-12-28T05:35:29;-1.40;99.90
12481;DHT22;6305;48.398;11.762;2022-12-28T05:37:56;-1.30;99.90
12481;DHT22;6305;48.398;11.762;2022-12-28T05:40:27;-1.20;99.90
12481;DHT22;6305;48.398;11.762;2022-12-28T05:43:22;-1.20;99.90
12481;DHT22;6305;48.398;11.762;2022-12-28T05:46:03;-1.10;99.90
12481;DHT22;6305;48.398;11.762;2022-12-28T05:48:47;-1.00;99.90
12481;DHT22;6305;48.398;11.762;2022-12-28T05:51:31;-0.90;99.90
12481;DHT22;6305;48.398;11.762;2022-12-28T05:54:11;-0.90;99.90
12481;DHT22;6305;48.398;11.762;2022-12-28T05:56:42;-0.80;99.90
12481;DHT22;6305;48.398;11.762;2022-12-28T05:59:11;-0.80;99.90
12481;DHT22;6305;48.398;11.762;2022-12-28T06:01:42;-0.70;99.90
12481;DHT22;6305;48.398;11.762;2022-12-28T06:04:14;-0.60;99.90
12481;DHT22;6305;48.398;11.762;2022-12-28T06:06:42;-0.60;99.90
12481;DHT22;6305;48.398;11.762;2022-12-28T06:09:09;-0.50;99.90
12481;DHT22;6305;48.398;11.762;2022-12-28T06:11:36;-0.50;99.90
12481;DHT22;6305;48.398;11.762;2022-12-28T06:14:03;-0.40;99.90
12481;DHT22;6305;48.398;11.762;2022-12-28T06:16:32;-0.40;99.90
12481;DHT22;6305;48.398;11.762;2022-12-28T06:19:04;-0.30;99.90
12481;DHT22;6305;48.398;11.762;2022-12-28T06:21:33;-0.30;99.90
12481;DHT22;6305;48.398;11.762;2022-12-28T06:24:02;-0.20;99.90
12481;DHT22;6305;48.398;11.762;2022-12-28T06:26:31;-0.20;99.90
12481;DHT22;6305;48.398;11.762;2022-12-28T06:28:59;-0.20;99.90
12481;DHT22;6305;48.398;11.762;2022-12-28T06:31:29;-0.10;99.90
12481;DHT22;6305;48.398;11.762;2022-12-28T06:33:58;-0.10;99.90
12481;DHT22;6305;48.398;11.762;2022-12-28T06:36:28;0.00;99.90
12481;DHT22;6305;48.398;11.762;2022-12-28T06:38:56;0.00;99.90
12481;DHT22;6305;48.398;11.762;2022-12-28T06:41:25;0.10;99.90
12481;DHT22;6305;48.398;11.762;2022-12-28T06:43:52;0.10;99.90
12481;DHT22;6305;48.398;11.762;2022-12-28T06:46:21;0.10;99.90
12481;DHT22;6305;48.398;11.762;2022-12-28T06:48:49;0.10;99.90
12481;DHT22;6305;48.398;11.762;2022-12-28T06:51:18;0.20;99.90
12481;DHT22;6305;48.398;11.762;2022-12-28T06:53:47;0.20;99.90
12481;DHT22;6305;48.398;11.762;2022-12-28T06:56:16;0.20;99.90
12481;DHT22;6305;48.398;11.762;2022-12-28T06:58:44;0.20;99.90
12481;DHT22;6305;48.398;11.762;2022-12-28T07:01:13;0.20;99.90
12481;DHT22;6305;48.398;11.762;2022-12-28T07:03:41;0.30;99.90
12481;DHT22;6305;48.398;11.762;2022-12-28T07:06:09;0.30;99.90
12481;DHT22;6305;48.398;11.762;2022-12-28T07:08:36;0.30;99.90
12481;DHT22;6305;48.398;11.762;2022-12-28T07:11:07;0.30;99.90
12481;DHT22;6305;48.398;11.762;2022-12-28T07:13:35;0.40;99.90
12481;DHT22;6305;48.398;11.762;2022-12-28T07:16:03;0.40;99.90
12481;DHT22;6305;48.398;11.762;2022-12-28T07:18:30;0.40;99.90
12481;DHT22;6305;48.398;11.762;2022-12-28T07:20:59;0.40;99.90
12481;DHT22;6305;48.398;11.762;2022-12-28T07:23:26;0.50;99.90
12481;DHT22;6305;48.398;11.762;2022-12-28T07:25:56;0.50;99.90
12481;DHT22;6305;48.398;11.762;2022-12-28T07:28:25;0.50;99.90
12481;DHT22;6305;48.398;11.762;2022-12-28T07:30:52;0.50;99.90
12481;DHT22;6305;48.398;11.762;2022-12-28T07:33:20;0.50;99.90
12481;DHT22;6305;48.398;11.762;2022-12-28T07:35:47;0.50;99.90
12481;DHT22;6305;48.398;11.762;2022-12-28T07:38:14;0.50;99.90
12481;DHT22;6305;48.398;11.762;2022-12-28T07:40:41;0.50;99.90
12481;DHT22;6305;48.398;11.762;2022-12-28T07:43:09;0.50;99.90
12481;DHT22;6305;48.398;11.762;2022-12-28T07:45:37;0.50;99.90
12481;DHT22;6305;48.398;11.762;2022-12-28T07:48:04;0.60;99.90
12481;DHT22;6305;48.398;11.762;2022-12-28T07:50:33;0.60;99.90
12481;DHT22;6305;48.398;11.762;2022-12-28T07:53:00;0.60;99.90
12481;DHT22;6305;48.398;11.762;2022-12-28T07:55:28;0.70;99.90
12481;DHT22;6305;48.398;11.762;2022-12-28T07:57:56;0.80;99.90
12481;DHT22;6305;48.398;11.762;2022-12-28T08:00:23;0.90;99.90
12481;DHT22;6305;48.398;11.762;2022-12-28T08:02:55;1.00;99.90
12481;DHT22;6305;48.398;11.762;2022-12-28T08:05:22;1.10;99.90
12481;DHT22;6305;48.398;11.762;2022-12-28T08:07:49;1.30;99.90
12481;DHT22;6305;48.398;11.762;2022-12-28T08:10:16;1.30;99.90
12481;DHT22;6305;48.398;11.762;2022-12-28T08:12:43;1.40;99.90
12481;DHT22;6305;48.398;11.762;2022-12-28T08:15:11;1.50;99.90
12481;DHT22;6305;48.398;11.762;2022-12-28T08:17:38;1.60;99.90
12481;DHT22;6305;48.398;11.762;2022-12-28T08:20:07;1.70;99.90
12481;DHT22;6305;48.398;11.762;2022-12-28T08:22:34;1.80;99.90
12481;DHT22;6305;48.398;11.762;2022-12-28T08:25:01;1.90;99.90
12481;DHT22;6305;48.398;11.762;2022-12-28T08:27:29;2.00;99.90
12481;DHT22;6305;48.398;11.762;2022-12-28T08:29:56;2.10;99.90
12481;DHT22;6305;48.398;11.762;2022-12-28T08:32:23;2.30;99.90
12481;DHT22;6305;48.398;11.762;2022-12-28T08:34:50;2.40;99.90
12481;DHT22;6305;48.398;11.762;2022-12-28T08:37:19;2.60;99.90
12481;DHT22;6305;48.398;11.762;2022-12-28T08:39:46;2.70;99.90
12481;DHT22;6305;48.398;11.762;2022-12-28T08:42:13;2.90;99.90
12481;DHT22;6305;48.398;11.762;2022-12-28T08:44:40;3.00;99.90
12481;DHT22;6305;48.398;11.762;2022-12-28T08:47:07;3.00;99.90
12481;DHT22;6305;48.398;11.762;2022-12-28T08:49:34;3.00;99.90
12481;DHT22;6305;48.398;11.762;2022-12-28T08:52:01;3.00;99.90
12481;DHT22;6305;48.398;11.762;2022-12-28T08:54:29;3.00;99.90
12481;DHT22;6305;48.398;11.762;2022-12-28T08:56:56;3.10;99.90
12481;DHT22;6305;48.398;11.762;2022-12-28T08:59:23;3.10;99.90
12481;DHT22;6305;48.398;11.762;2022-12-28T09:01:51;3.20;99.90
12481;DHT22;6305;48.398;11.762;2022-12-28T09:04:19;3.20;99.90
12481;DHT22;6305;48.398;11.762;2022-12-28T09:06:47;3.30;99.90
12481;DHT22;6305;48.398;11.762;2022-12-28T09:09:16;3.50;99.90
12481;DHT22;6305;48.398;11.762;2022-12-28T09:11:45;3.70;99.90
12481;DHT22;6305;48.398;11.762;2022-12-28T09:14:13;3.90;99.90
12481;DHT22;6305;48.398;11.762;2022-12-28T09:16:40;4.20;99.90
12481;DHT22;6305;48.398;11.762;2022-12-28T09:19:10;4.50;99.90
12481;DHT22;6305;48.398;11.762;2022-12-28T09:21:39;4.80;99.90
12481;DHT22;6305;48.398;11.762;2022-12-28T09:24:07;5.20;99.90
12481;DHT22;6305;48.398;11.762;2022-12-28T09:26:35;5.40;99.90
12481;DHT22;6305;48.398;11.762;2022-12-28T09:29:06;5.50;99.90
12481;DHT22;6305;48.398;11.762;2022-12-28T09:31:34;5.50;99.90
12481;DHT22;6305;48.398;11.762;2022-12-28T09:34:01;5.60;99.90
12481;DHT22;6305;48.398;11.762;2022-12-28T09:36:30;5.60;99.90
12481;DHT22;6305;48.398;11.762;2022-12-28T09:38:59;5.60;99.90
12481;DHT22;6305;48.398;11.762;2022-12-28T09:41:30;5.70;99.90
12481;DHT22;6305;48.398;11.762;2022-12-28T09:44:16;5.70;99.90
12481;DHT22;6305;48.398;11.762;2022-12-28T09:46:49;5.80;99.90
12481;DHT22;6305;48.398;11.762;2022-12-28T09:49:18;6.10;99.90
12481;DHT22;6305;48.398;11.762;2022-12-28T09:51:51;6.20;99.90
12481;DHT22;6305;48.398;11.762;2022-12-28T09:54:19;6.40;99.90
12481;DHT22;6305;48.398;11.762;2022-12-28T09:56:47;6.60;99.90
12481;DHT22;6305;48.398;11.762;2022-12-28T09:59:20;6.80;99.90
12481;DHT22;6305;48.398;11.762;2022-12-28T10:01:52;7.00;99.90
12481;DHT22;6305;48.398;11.762;2022-12-28T10:04:21;7.40;99.90
12481;DHT22;6305;48.398;11.762;2022-12-28T10:06:48;7.80;99.90
12481;DHT22;6305;48.398;11.762;2022-12-28T10:09:22;8.10;99.90
12481;DHT22;6305;48.398;11.762;2022-12-28T10:11:51;8.40;99.90
12481;DHT22;6305;48.398;11.762;2022-12-28T10:14:24;8.70;99.90
12481;DHT22;6305;48.398;11.762;2022-12-28T10:16:53;9.20;99.90
12481;DHT22;6305;48.398;11.762;2022-12-28T10:19:23;11.10;99.90
12481;DHT22;6305;48.398;11.762;2022-12-28T10:21:55;12.70;99.90
12481;DHT22;6305;48.398;11.762;2022-12-28T10:24:23;14.10;99.90
12481;DHT22;6305;48.398;11.762;2022-12-28T10:26:50;14.60;99.90
12481;DHT22;6305;48.398;11.762;2022-12-28T10:29:20;14.30;99.90
12481;DHT22;6305;48.398;11.762;2022-12-28T10:31:59;14.20;99.90
12481;DHT22;6305;48.398;11.762;2022-12-28T10:34:28;14.30;99.90
12481;DHT22;6305;48.398;11.762;2022-12-28T10:37:03;14.20;99.90
12481;DHT22;6305;48.398;11.762;2022-12-28T10:39:31;13.90;99.90
12481;DHT22;6305;48.398;11.762;2022-12-28T10:41:59;13.50;99.90
12481;DHT22;6305;48.398;11.762;2022-12-28T10:44:30;12.90;99.90
12481;DHT22;6305;48.398;11.762;2022-12-28T10:47:00;12.10;99.90
12481;DHT22;6305;48.398;11.762;2022-12-28T10:49:31;11.60;99.90
12481;DHT22;6305;48.398;11.762;2022-12-28T10:52:02;11.00;99.90
12481;DHT22;6305;48.398;11.762;2022-12-28T10:54:32;10.70;99.90
12481;DHT22;6305;48.398;11.762;2022-12-28T10:57:00;10.40;99.90
12481;DHT22;6305;48.398;11.762;2022-12-28T10:59:29;10.20;99.20
12481;DHT22;6305;48.398;11.762;2022-12-28T11:02:25;10.10;99.90
12481;DHT22;6305;48.398;11.762;2022-12-28T11:04:57;10.30;99.70
12481;DHT22;6305;48.398;11.762;2022-12-28T11:07:30;10.70;99.00
12481;DHT22;6305;48.398;11.762;2022-12-28T11:10:14;11.50;96.70
12481;DHT22;6305;48.398;11.762;2022-12-28T11:12:43;12.60;93.40
12481;DHT22;6305;48.398;11.762;2022-12-28T11:15:15;13.90;88.70
12481;DHT22;6305;48.398;11.762;2022-12-28T11:17:44;15.70;78.20
12481;DHT22;6305;48.398;11.762;2022-12-28T11:20:16;17.70;66.10
12481;DHT22;6305;48.398;11.762;2022-12-28T11:22:44;19.40;56.60
12481;DHT22;6305;48.398;11.762;2022-12-28T11:25:14;20.60;51.60
12481;DHT22;6305;48.398;11.762;2022-12-28T11:27:42;20.80;47.30
12481;DHT22;6305;48.398;11.762;2022-12-28T11:30:15;20.60;45.90
12481;DHT22;6305;48.398;11.762;2022-12-28T11:32:47;21.10;45.80
12481;DHT22;6305;48.398;11.762;2022-12-28T11:35:17;21.00;43.80
12481;DHT22;6305;48.398;11.762;2022-12-28T11:37:54;21.00;44.10
12481;DHT22;6305;48.398;11.762;2022-12-28T11:40:45;21.90;43.90
12481;DHT22;6305;48.398;11.762;2022-12-28T11:46:40;21.90;40.60
12481;DHT22;6305;48.398;11.762;2022-12-28T11:49:32;21.10;40.00
12481;DHT22;6305;48.398;11.762;2022-12-28T11:52:31;20.30;41.50
12481;DHT22;6305;48.398;11.762;2022-12-28T11:55:00;20.50;42.70
12481;DHT22;6305;48.398;11.762;2022-12-28T11:57:35;20.60;41.50
12481;DHT22;6305;48.398;11.762;2022-12-28T12:00:39;19.70;41.60
12481;DHT22;6305;48.398;11.762;2022-12-28T12:03:08;19.10;43.40
12481;DHT22;6305;48.398;11.762;2022-12-28T12:05:49;18.40;43.50
12481;DHT22;6305;48.398;11.762;2022-12-28T12:08:39;16.80;44.40
12481;DHT22;6305;48.398;11.762;2022-12-28T12:11:26;15.40;47.60
12481;DHT22;6305;48.398;11.762;2022-12-28T12:13:58;15.00;49.50
12481;DHT22;6305;48.398;11.762;2022-12-28T12:16:31;15.30;49.90
12481;DHT22;6305;48.398;11.762;2022-12-28T12:19:02;15.00;49.40
12481;DHT22;6305;48.398;11.762;2022-12-28T12:21:36;14.10;50.30
12481;DHT22;6305;48.398;11.762;2022-12-28T12:24:19;13.30;52.40
12481;DHT22;6305;48.398;11.762;2022-12-28T12:26:54;13.20;53.90
12481;DHT22;6305;48.398;11.762;2022-12-28T12:29:26;13.70;54.60
12481;DHT22;6305;48.398;11.762;2022-12-28T12:32:00;14.90;54.90
12481;DHT22;6305;48.398;11.762;2022-12-28T12:34:38;17.00;52.10
12481;DHT22;6305;48.398;11.762;2022-12-28T12:37:41;18.50;47.30
12481;DHT22;6305;48.398;11.762;2022-12-28T12:43:26;18.30;44.50
12481;DHT22;6305;48.398;11.762;2022-12-28T12:46:03;18.30;45.00
12481;DHT22;6305;48.398;11.762;2022-12-28T12:48:43;18.90;44.60
12481;DHT22;6305;48.398;11.762;2022-12-28T12:51:24;19.90;42.90
12481;DHT22;6305;48.398;11.762;2022-12-28T12:54:05;20.90;42.10
12481;DHT22;6305;48.398;11.762;2022-12-28T12:56:44;21.80;40.70
12481;DHT22;6305;48.398;11.762;2022-12-28T13:02:39;21.20;38.70
12481;DHT22;6305;48.398;11.762;2022-12-28T13:05:15;20.20;39.60
12481;DHT22;6305;48.398;11.762;2022-12-28T13:07:44;18.80;41.10
12481;DHT22;6305;48.398;11.762;2022-12-28T13:10:16;17.70;42.80
12481;DHT22;6305;48.398;11.762;2022-12-28T13:12:44;16.60;44.60
12481;DHT22;6305;48.398;11.762;2022-12-28T13:15:14;15.50;46.50
12481;DHT22;6305;48.398;11.762;2022-12-28T13:17:57;14.60;48.50
12481;DHT22;6305;48.398;11.762;2022-12-28T13:20:25;13.70;50.40
12481;DHT22;6305;48.398;11.762;2022-12-28T13:22:53;13.20;52.00
12481;DHT22;6305;48.398;11.762;2022-12-28T13:25:26;12.70;53.40
12481;DHT22;6305;48.398;11.762;2022-12-28T13:27:53;12.30;54.50
12481;DHT22;6305;48.398;11.762;2022-12-28T13:30:22;11.90;56.10
12481;DHT22;6305;48.398;11.762;2022-12-28T13:32:51;11.60;56.80
12481;DHT22;6305;48.398;11.762;2022-12-28T13:35:21;11.50;57.70
12481;DHT22;6305;48.398;11.762;2022-12-28T13:38:02;11.50;58.60
12481;DHT22;6305;48.398;11.762;2022-12-28T13:40:31;11.30;59.10
12481;DHT22;6305;48.398;11.762;2022-12-28T13:43:11;11.10;59.70
12481;DHT22;6305;48.398;11.762;2022-12-28T13:45:45;11.00;60.40
12481;DHT22;6305;48.398;11.762;2022-12-28T13:48:13;10.80;61.00
12481;DHT22;6305;48.398;11.762;2022-12-28T13:50:41;10.70;61.70
12481;DHT22;6305;48.398;11.762;2022-12-28T13:53:12;10.60;63.20
12481;DHT22;6305;48.398;11.762;2022-12-28T13:55:44;10.40;63.30
12481;DHT22;6305;48.398;11.762;2022-12-28T13:58:14;10.20;64.70
12481;DHT22;6305;48.398;11.762;2022-12-28T14:00:44;10.00;66.40
12481;DHT22;6305;48.398;11.762;2022-12-28T14:03:12;9.90;69.00
12481;DHT22;6305;48.398;11.762;2022-12-28T14:05:42;9.80;70.80
12481;DHT22;6305;48.398;11.762;2022-12-28T14:08:11;9.70;72.90
12481;DHT22;6305;48.398;11.762;2022-12-28T14:10:39;9.60;75.00
12481;DHT22;6305;48.398;11.762;2022-12-28T14:13:08;9.50;77.50
12481;DHT22;6305;48.398;11.762;2022-12-28T14:15:36;9.40;80.10
12481;DHT22;6305;48.398;11.762;2022-12-28T14:18:04;9.30;82.30
12481;DHT22;6305;48.398;11.762;2022-12-28T14:20:45;9.30;84.70
12481;DHT22;6305;48.398;11.762;2022-12-28T14:23:21;9.20;87.10
12481;DHT22;6305;48.398;11.762;2022-12-28T14:25:49;9.10;89.30
12481;DHT22;6305;48.398;11.762;2022-12-28T14:28:20;9.00;90.30
12481;DHT22;6305;48.398;11.762;2022-12-28T14:30:51;8.90;90.70
12481;DHT22;6305;48.398;11.762;2022-12-28T14:33:21;8.70;91.20
12481;DHT22;6305;48.398;11.762;2022-12-28T14:35:50;8.60;91.90
12481;DHT22;6305;48.398;11.762;2022-12-28T14:38:22;8.60;92.50
12481;DHT22;6305;48.398;11.762;2022-12-28T14:40:54;8.50;93.00
12481;DHT22;6305;48.398;11.762;2022-12-28T14:43:24;8.50;93.50
12481;DHT22;6305;48.398;11.762;2022-12-28T14:45:52;8.50;93.70
12481;DHT22;6305;48.398;11.762;2022-12-28T14:48:30;8.50;94.00
12481;DHT22;6305;48.398;11.762;2022-12-28T14:51:00;8.50;94.30
12481;DHT22;6305;48.398;11.762;2022-12-28T14:53:30;8.40;94.50
12481;DHT22;6305;48.398;11.762;2022-12-28T14:56:03;8.40;94.70
12481;DHT22;6305;48.398;11.762;2022-12-28T14:58:36;8.30;95.00
12481;DHT22;6305;48.398;11.762;2022-12-28T15:01:07;8.30;95.30
12481;DHT22;6305;48.398;11.762;2022-12-28T15:03:48;8.30;95.50
12481;DHT22;6305;48.398;11.762;2022-12-28T15:06:15;8.20;95.80
12481;DHT22;6305;48.398;11.762;2022-12-28T15:08:47;8.10;96.40
12481;DHT22;6305;48.398;11.762;2022-12-28T15:11:16;8.00;97.40
12481;DHT22;6305;48.398;11.762;2022-12-28T15:13:43;7.90;97.90
12481;DHT22;6305;48.398;11.762;2022-12-28T15:16:11;7.90;98.70
12481;DHT22;6305;48.398;11.762;2022-12-28T15:18:39;7.80;99.40
12481;DHT22;6305;48.398;11.762;2022-12-28T15:21:10;7.70;99.90
12481;DHT22;6305;48.398;11.762;2022-12-28T15:23:38;7.60;99.90
12481;DHT22;6305;48.398;11.762;2022-12-28T15:26:08;7.60;99.90
12481;DHT22;6305;48.398;11.762;2022-12-28T15:28:35;7.50;99.90
12481;DHT22;6305;48.398;11.762;2022-12-28T15:31:04;7.40;99.90
12481;DHT22;6305;48.398;11.762;2022-12-28T15:33:33;7.30;99.90
12481;DHT22;6305;48.398;11.762;2022-12-28T15:36:03;7.20;99.90
12481;DHT22;6305;48.398;11.762;2022-12-28T15:38:31;7.20;99.90
12481;DHT22;6305;48.398;11.762;2022-12-28T15:40:58;7.10;99.90
12481;DHT22;6305;48.398;11.762;2022-12-28T15:43:29;7.10;99.90
12481;DHT22;6305;48.398;11.762;2022-12-28T15:45:59;7.00;99.90
12481;DHT22;6305;48.398;11.762;2022-12-28T15:48:40;6.90;99.90
12481;DHT22;6305;48.398;11.762;2022-12-28T15:51:19;6.80;99.90
12481;DHT22;6305;48.398;11.762;2022-12-28T15:53:50;6.70;99.90
12481;DHT22;6305;48.398;11.762;2022-12-28T15:56:24;6.60;99.90
12481;DHT22;6305;48.398;11.762;2022-12-28T15:58:57;6.50;99.90
12481;DHT22;6305;48.398;11.762;2022-12-28T16:01:27;6.40;99.90
12481;DHT22;6305;48.398;11.762;2022-12-28T16:03:57;6.30;99.90
12481;DHT22;6305;48.398;11.762;2022-12-28T16:06:26;6.30;99.90
12481;DHT22;6305;48.398;11.762;2022-12-28T16:08:55;6.30;99.90
12481;DHT22;6305;48.398;11.762;2022-12-28T16:11:24;6.20;99.90
12481;DHT22;6305;48.398;11.762;2022-12-28T16:13:58;6.10;99.90
12481;DHT22;6305;48.398;11.762;2022-12-28T16:16:29;6.00;99.90
12481;DHT22;6305;48.398;11.762;2022-12-28T16:18:58;5.90;99.90
12481;DHT22;6305;48.398;11.762;2022-12-28T16:21:28;5.90;99.90
12481;DHT22;6305;48.398;11.762;2022-12-28T16:23:58;5.80;99.90
12481;DHT22;6305;48.398;11.762;2022-12-28T16:26:27;5.70;99.90